Ashern, Canada
Current Conditions -  °F | °C
As of 3:00 AM on Thursday 23 Oct 2014 (Local Time) from CYDN Reporting Station
Overcast Overcast  
Wind Chill: 52°   Ceiling: 2000
Heat Index: 52°   Visibility: 9mi
Dew Point: 46°   Wind: 16mph
Humidity: 82%   Direction: 260°W
Pressure: 29.68"   Gusts: NA
Location:  51.18°N, 98.33°W
Report Text: CYDN 230800Z AUTO 26014KT 9SM OVC020 11/08 A2968 RMK SLP056 DENSITY ALT 1000FT
Loading
Personal Weather Stations






























Interactive Weather Map
Tropical Storm Tracking
New forecast layout! Learn more

10-Day Weather Forecast

Advertisements
Track Severe Weather on mobile